AirNav   Pilot Hours Calculator
 
 832 users online  

0MI8 Oakwood Southshore Medical Center Heliport
Trenton, Michigan, USA

GOING TO TRENTON?


FAA INFORMATION EFFECTIVE 07 NOVEMBER 2019

Location

FAA Identifier: 0MI8
Lat/Long: 42-06-57.5100N 083-12-52.8100W
42-06.958500N 083-12.880167W
42.1159750,-83.2146694
(estimated)
Elevation: 589 ft. / 180 m (estimated)
From city: 3 miles NE of TRENTON, MI
Time zone: UTC -5 (UTC -4 during Daylight Saving Time)
Zip code: 48183

Heliport Operations

Heliport use: Private use. Permission required prior to landing
Activation date: 10/2016
Control tower: no
ARTCC: CLEVELAND CENTER
FSS: LANSING FLIGHT SERVICE STATION
Attendance: 
Segmented circle: no

Heliport Communications

WX AWOS-3 at ONZ (2.6 nm SE): 119.675 (734-692-9686)
WX ASOS at DTW (8 nm NW): PHONE 734-955-5015
WX AWOS-3 at TTF (14 nm SW): 119.075 (734-384-0259)
WX ASOS at YIP (16 nm NW): PHONE 734-961-6843
WX ASOS at DET (20 nm NE): PHONE 313-371-9696

Nearby radio navigation aids

VOR radial/distance  VOR name  Freq  Var
DXOr137/8.9DETROIT VOR/DME113.4006W
CRLr072/11.6CARLETON VOR/DME115.7003W
YQGr251/18.9WINDSOR VOR/DME113.8006W
SVMr139/24.3SALEM VORTAC114.3003W

 
NDB name  Hdg/Dist  Freq  Var  ID
GROSSE ILE295/2.941907WRYS .-. -.-- ...
TECUMSEH087/30.323906WTCU - -.-. ..-
PORT CLINTON344/39.042307WPCW .--. -.-. .--

Heliport Services

Runway Information

Helipad H1

Dimensions: 48 x 48 ft. / 15 x 15 m
Surface: concrete
Traffic pattern: leftleft

Heliport Ownership and Management from official FAA records

Ownership: Privately-owned
Owner: OAKWOOD SOUTHSHORE MEDICAL CENTER
5450 FORT ST.
TRENTON, MI 48183
Phone 784-671-3817
Manager: MATT GEORGE
5450 FORT ST.
TRENTON, MI 48183
Phone 734-6713817

Additional Remarks

FOR CD CTC CLEVELAND ARTCC AT 440-774-0490.

Instrument Procedures

There are no published instrument procedures at 0MI8.

Some nearby airports with instrument procedures:

KONZ - Grosse Ile Municipal Airport (3 nm SE)
KDTW - Detroit Metropolitan Wayne County Airport (8 nm NW)
KTTF - Custer Airport (14 nm SW)
KYIP - Willow Run Airport (16 nm NW)
1D2 - Canton-Plymouth-Mettetal Airport (18 nm NW)
KDET - Coleman A Young Municipal Airport (20 nm NE)
 
Loc | Ops | Rwys | IFR | FBO | Links
Com | Nav | Svcs | Stats | Notes
Aerial photo
No photo
 
Airport distance calculator
Flying to Oakwood Southshore Medical Center Heliport? Find the distance to fly.

From to 0MI8

Sunrise and sunset
Times for 21-Nov-2019
 Local
(UTC-5)
 Zulu
(UTC)
Morning civil twilight07:0112:01
Sunrise07:3112:31
Sunset17:0622:06
Evening civil twilight17:3722:37

Current date and time
Zulu (UTC)  22-Nov-2019 03:59:29
Local (UTC-5)  21-Nov-2019 22:59:29
 
METAR
KONZ 
3nm E 
220335Z AUTO 28013G18KT 7SM RA OVC021 10/08 A2978 RMK AO2 T00960075
KDTW 
9nm NW 
220353Z 28014G24KT 10SM SCT025 OVC035 09/06 A2980 RMK AO2 PK WND 28027/0318 SLP093 T00940061 $
KTTF 
14nm SW 
220355Z AUTO 26011G19KT 10SM SCT020 OVC035 11/08 A2980 RMK AO2 T01050081 401190034
CXHA 
15nm E 
220300Z AUTO 26012G19KT 10/07 RMK AO1 3015 PK WND 26019/0258 SLP089 T01010069 50002
CYQG 
15nm NE 
220355Z AUTO 28015G28KT 9SM BKN023 OVC032 10/06 A2979 RMK SLP092
KYIP 
16nm NW 
220353Z 27016G27KT 10SM SCT018 BKN026 OVC032 10/06 A2980 RMK AO2 PK WND 29027/0348 SLP093 T01000061
KDET 
19nm NE 
220353Z 27015G27KT 10SM BKN028 OVC036 09/06 A2979 RMK AO2 PK WND 26029/0302 SLP089 T00940056
TAF
KDTW 
9nm NW 
212043Z 2121/2224 20018G27KT 5SM -SHRA BKN012 OVC020 FM212200 22020G30KT 5SM -DZ OVC008 FM220300 28018G28KT P6SM OVC020 FM220800 30014G24KT P6SM OVC028 FM221400 31012G18KT P6SM BKN035
CYQG 
15nm NE 
220204Z 2202/2224 26020G30KT P6SM FEW020 OVC025 TEMPO 2202/2203 5SM -RA -DZ BR OVC020 FM220300 27018G28KT P6SM OVC025 TEMPO 2203/2210 6SM -SHRA BR OVC020 BECMG 2204/2206 30015G25KT FM221200 30012G22KT P6SM BKN025 FM221900 30010G20KT P6SM SCT040 BECMG 2221/2223 26008KT RMK FCST BASED ON AUTO OBS. NXT FCST BY 220600Z
KYIP 
16nm NW 
212044Z 2121/2218 20018G30KT 6SM -SHRA BKN012 OVC020 FM212200 22021G32KT 5SM -DZ OVC008 FM220300 28018G28KT P6SM OVC020 FM220800 30014G24KT P6SM OVC028 FM221400 31012G18KT P6SM BKN035
KDET 
19nm NE 
211725Z 2118/2218 19014G22KT 5SM SHRA BKN040 OVC060 FM212000 20018G27KT 6SM -SHRA BKN022 OVC040 FM212300 23020G30KT P6SM OVC012 FM220300 28018G28KT P6SM OVC020 FM220800 30014G24KT P6SM OVC028 FM221400 31012G18KT P6SM BKN035
NOTAMs
Click for the latest NOTAMs
NOTAMs are issued by the DoD/FAA and will open in a separate window not controlled by AirNav.

 

 
 

Would you like to see your business listed on this page?

 If your business provides an interesting product or service to pilots, flight crews, aircraft, or users of the Oakwood Southshore Medical Center Heliport, you should consider listing it here.  To start the listing process, click on the button below
 
Add a business
 

Other Pages about Oakwood Southshore Medical Center Heliport

Update a link
 
Copyright © AirNav, LLC. All rights reserved. Privacy Policy  Contact